createdAt,value
2022-11-12T00:00:23.732Z,13.40
2022-11-12T00:01:44.609Z,10.60
2022-11-12T00:03:06.207Z,11.48
2022-11-12T00:04:26.771Z,12.55
2022-11-12T00:05:49.446Z,10.75
2022-11-12T00:07:10.638Z,14.63
2022-11-12T00:08:31.145Z,8.45
2022-11-12T00:11:12.645Z,11.83
2022-11-12T00:12:33.333Z,6.72
2022-11-12T00:13:54.252Z,8.32
2022-11-12T00:15:15.083Z,6.00
2022-11-12T00:16:36.183Z,8.90
2022-11-12T00:17:56.925Z,9.90
2022-11-12T00:20:38.302Z,6.97
2022-11-12T00:21:58.983Z,8.52
2022-11-12T00:23:19.839Z,7.88
2022-11-12T00:24:40.523Z,11.50
2022-11-12T00:26:01.799Z,7.30
2022-11-12T00:27:23.185Z,6.25
2022-11-12T00:28:43.790Z,8.10
2022-11-12T00:31:25.315Z,8.63
2022-11-12T00:32:46.576Z,9.18
2022-11-12T00:34:08.211Z,6.70
2022-11-12T00:35:28.792Z,8.07
2022-11-12T00:36:49.393Z,9.60
2022-11-12T00:38:10.725Z,9.90
2022-11-12T00:39:31.242Z,9.85
2022-11-12T00:40:51.898Z,8.88
2022-11-12T00:42:12.580Z,9.45
2022-11-12T00:44:54.247Z,14.35
2022-11-12T00:46:14.817Z,12.98
2022-11-12T00:47:35.379Z,9.95
2022-11-12T00:48:56.548Z,8.25
2022-11-12T00:50:17.394Z,7.45
2022-11-12T00:51:38.454Z,5.78
2022-11-12T00:52:59.518Z,6.63
2022-11-12T00:54:20.503Z,10.38
2022-11-12T00:55:41.041Z,12.90
2022-11-12T00:57:01.494Z,8.43
2022-11-12T00:58:21.953Z,6.97
2022-11-12T00:59:43.140Z,6.38
2022-11-12T01:01:12.534Z,6.18
2022-11-12T01:02:38.654Z,6.70
2022-11-12T01:04:03.374Z,7.20
2022-11-12T01:05:24.523Z,5.65
2022-11-12T01:06:45.049Z,13.00
2022-11-12T01:08:06.058Z,8.98
2022-11-12T01:09:26.765Z,9.38
2022-11-12T01:12:08.598Z,7.70
2022-11-12T01:14:49.966Z,8.25
2022-11-12T01:17:33.366Z,6.95
2022-11-12T01:20:16.437Z,7.35
2022-11-12T01:21:42.900Z,8.40
2022-11-12T01:23:03.834Z,8.27
2022-11-12T01:24:24.282Z,8.00
2022-11-12T01:27:05.747Z,11.35
2022-11-12T01:29:47.975Z,6.55
2022-11-12T01:31:11.289Z,7.65
2022-11-12T01:32:36.800Z,7.80
2022-11-12T01:34:00.552Z,6.78
2022-11-12T01:35:21.216Z,9.70
2022-11-12T01:36:42.945Z,9.60
2022-11-12T01:38:03.752Z,9.75
2022-11-12T01:39:25.110Z,7.10
2022-11-12T01:40:45.813Z,6.65
2022-11-12T01:42:06.300Z,6.55
2022-11-12T01:43:26.862Z,8.65
2022-11-12T01:44:47.480Z,7.03
2022-11-12T01:46:27.741Z,8.80
2022-11-12T01:47:51.524Z,5.75
2022-11-12T01:49:17.534Z,5.25
2022-11-12T01:50:40.928Z,8.13
2022-11-12T01:52:29.627Z,7.03
2022-11-12T01:53:55.003Z,7.63
2022-11-12T01:55:37.439Z,6.65
2022-11-12T01:56:59.739Z,7.40
2022-11-12T01:58:28.714Z,8.32
2022-11-12T01:59:51.360Z,7.43
2022-11-12T02:01:11.992Z,7.50
2022-11-12T02:02:33.291Z,7.50
2022-11-12T02:03:54.263Z,6.60
2022-11-12T02:05:17.258Z,7.05
2022-11-12T02:06:40.020Z,9.57
2022-11-12T02:08:03.116Z,8.93
2022-11-12T02:09:24.164Z,9.00
2022-11-12T02:10:45.130Z,7.18
2022-11-12T02:12:06.152Z,10.93
2022-11-12T02:13:46.348Z,7.00
2022-11-12T02:15:07.657Z,7.93
2022-11-12T02:17:56.863Z,8.60
2022-11-12T02:19:18.675Z,8.32
2022-11-12T02:21:59.885Z,7.75
2022-11-12T02:24:41.912Z,7.00
2022-11-12T02:26:02.525Z,11.00
2022-11-12T02:27:24.276Z,6.78
2022-11-12T02:28:44.749Z,9.15
2022-11-12T02:31:26.936Z,10.60
2022-11-12T02:32:48.066Z,9.23
2022-11-12T02:34:08.582Z,6.30
2022-11-12T02:35:30.363Z,8.88
2022-11-12T02:36:51.064Z,9.60
2022-11-12T02:38:12.227Z,5.90
2022-11-12T02:39:33.075Z,19.77
2022-11-12T02:40:54.416Z,6.82
2022-11-12T02:42:15.056Z,5.47
2022-11-12T02:43:35.545Z,7.30
2022-11-12T02:44:56.090Z,9.10
2022-11-12T02:46:17.235Z,5.57
2022-11-12T02:47:38.154Z,7.25
2022-11-12T02:48:58.652Z,9.77
2022-11-12T02:50:19.397Z,5.65
2022-11-12T02:51:40.473Z,9.73
2022-11-12T02:53:01.177Z,6.15
2022-11-12T02:55:43.770Z,5.47
2022-11-12T02:57:04.612Z,9.25
2022-11-12T02:58:25.692Z,7.28
2022-11-12T02:59:46.712Z,7.38
2022-11-12T03:01:07.306Z,8.80
2022-11-12T03:02:28.449Z,6.25
2022-11-12T03:03:49.548Z,7.10
2022-11-12T03:05:11.383Z,7.00
2022-11-12T03:06:31.936Z,6.07
2022-11-12T03:08:00.102Z,8.77
2022-11-12T03:09:21.043Z,5.88
2022-11-12T03:10:46.998Z,6.82
2022-11-12T03:12:07.948Z,6.35
2022-11-12T03:13:28.476Z,7.75
2022-11-12T03:14:49.089Z,5.63
2022-11-12T03:16:09.973Z,8.60
2022-11-12T03:17:30.845Z,6.78
2022-11-12T03:18:52.163Z,9.48
2022-11-12T03:20:13.410Z,5.65
2022-11-12T03:21:34.099Z,9.77
2022-11-12T03:23:12.445Z,8.07
2022-11-12T03:24:38.787Z,4.93
2022-11-12T03:26:02.919Z,5.35
2022-11-12T03:27:23.855Z,7.70
2022-11-12T03:28:44.503Z,8.30
2022-11-12T03:30:06.308Z,6.50
2022-11-12T03:31:26.972Z,6.53
2022-11-12T03:32:47.416Z,6.72
2022-11-12T03:34:08.045Z,8.52
2022-11-12T03:35:35.866Z,9.05
2022-11-12T03:36:56.314Z,9.02
2022-11-12T03:38:16.610Z,7.82
2022-11-12T03:39:37.201Z,6.20
2022-11-12T03:42:19.015Z,7.07
2022-11-12T03:43:39.655Z,6.70
2022-11-12T03:45:00.477Z,8.25
2022-11-12T03:46:20.952Z,6.65
2022-11-12T03:47:47.217Z,7.28
2022-11-12T03:49:08.835Z,8.65
2022-11-12T03:50:32.784Z,7.32
2022-11-12T03:51:53.632Z,8.63
2022-11-12T03:53:15.080Z,7.97
2022-11-12T03:54:35.571Z,9.00
2022-11-12T03:55:56.923Z,6.18
2022-11-12T03:57:17.954Z,7.80
2022-11-12T03:59:59.620Z,6.55
2022-11-12T04:01:20.239Z,6.88
2022-11-12T04:02:41.253Z,6.95
2022-11-12T04:04:07.585Z,7.40
2022-11-12T04:05:47.077Z,6.32
2022-11-12T04:07:27.064Z,8.00
2022-11-12T04:08:47.941Z,7.70
2022-11-12T04:10:09.463Z,7.78
2022-11-12T04:13:12.475Z,5.32
2022-11-12T04:14:33.439Z,9.60
2022-11-12T04:16:17.624Z,6.15
2022-11-12T04:18:00.030Z,8.05
2022-11-12T04:19:39.654Z,7.18
2022-11-12T04:21:19.538Z,8.07
2022-11-12T04:22:40.598Z,5.68
2022-11-12T04:24:04.891Z,7.57
2022-11-12T04:25:45.235Z,7.97
2022-11-12T04:27:07.940Z,7.50
2022-11-12T04:28:28.806Z,6.10
2022-11-12T04:30:08.705Z,6.00
2022-11-12T04:31:34.836Z,8.02
2022-11-12T04:32:56.878Z,6.28
2022-11-12T04:34:32.743Z,9.70
2022-11-12T04:35:53.601Z,7.57
2022-11-12T04:37:14.793Z,10.57
2022-11-12T04:40:16.328Z,6.32
2022-11-12T04:41:55.830Z,8.63
2022-11-12T04:43:36.083Z,6.60
2022-11-12T04:45:01.130Z,5.78
2022-11-12T04:46:22.225Z,8.48
2022-11-12T04:47:46.538Z,9.88
2022-11-12T04:49:07.233Z,7.15
2022-11-12T04:50:31.559Z,7.90
2022-11-12T04:52:08.075Z,7.05
2022-11-12T04:53:29.756Z,6.47
2022-11-12T04:54:50.518Z,5.88
2022-11-12T04:56:11.456Z,8.10
2022-11-12T04:57:32.145Z,7.07
2022-11-12T05:00:13.660Z,8.53
2022-11-12T05:01:34.640Z,7.15
2022-11-12T05:04:16.472Z,8.35
2022-11-12T05:05:40.763Z,7.40
2022-11-12T05:08:25.379Z,8.40
2022-11-12T05:09:46.822Z,9.07
2022-11-12T05:12:39.100Z,9.75
2022-11-12T05:14:00.271Z,7.13
2022-11-12T05:16:42.004Z,6.97
2022-11-12T05:19:23.729Z,9.23
2022-11-12T05:20:44.774Z,6.97
2022-11-12T05:22:05.598Z,9.75
2022-11-12T05:23:26.116Z,7.93
2022-11-12T05:24:46.904Z,7.13
2022-11-12T05:26:07.864Z,5.80
2022-11-12T05:28:54.825Z,7.78
2022-11-12T05:30:15.813Z,8.60
2022-11-12T05:31:36.528Z,7.10
2022-11-12T05:32:57.293Z,10.75
2022-11-12T05:34:22.782Z,6.85
2022-11-12T05:35:44.266Z,7.72
2022-11-12T05:37:06.988Z,9.48
2022-11-12T05:38:29.279Z,6.45
2022-11-12T05:39:50.440Z,7.93
2022-11-12T05:41:13.850Z,8.98
2022-11-12T05:42:38.973Z,7.93
2022-11-12T05:45:20.270Z,7.88
2022-11-12T05:46:48.078Z,9.82
2022-11-12T05:48:08.801Z,6.50
2022-11-12T05:49:29.607Z,9.43
2022-11-12T05:51:11.993Z,8.73
2022-11-12T05:52:32.388Z,7.80
2022-11-12T05:53:53.326Z,6.20
2022-11-12T05:55:18.345Z,8.63
2022-11-12T05:56:39.942Z,8.75
2022-11-12T05:58:05.265Z,5.93
2022-11-12T05:59:26.242Z,7.60
2022-11-12T06:00:48.111Z,7.03
2022-11-12T06:02:08.563Z,6.80
2022-11-12T06:03:34.918Z,8.63
2022-11-12T06:04:55.727Z,6.10
2022-11-12T06:06:16.326Z,7.20
2022-11-12T06:07:37.006Z,8.73
2022-11-12T06:08:58.228Z,6.07
2022-11-12T06:10:20.638Z,6.57
2022-11-12T06:11:41.489Z,10.45
2022-11-12T06:13:02.070Z,8.55
2022-11-12T06:14:23.149Z,7.20
2022-11-12T06:15:45.286Z,9.57
2022-11-12T06:17:12.112Z,7.90
2022-11-12T06:18:32.630Z,7.80
2022-11-12T06:19:53.159Z,7.55
2022-11-12T06:21:19.927Z,8.32
2022-11-12T06:22:40.439Z,8.93
2022-11-12T06:24:06.457Z,9.98
2022-11-12T06:25:27.357Z,16.45
2022-11-12T06:26:48.364Z,12.35
2022-11-12T06:28:09.135Z,7.90
2022-11-12T06:30:50.751Z,7.50
2022-11-12T06:33:32.529Z,7.43
2022-11-12T06:34:53.676Z,10.38
2022-11-12T06:36:16.967Z,7.07
2022-11-12T06:37:38.379Z,9.70
2022-11-12T06:38:58.943Z,8.48
2022-11-12T06:40:21.886Z,5.97
2022-11-12T06:41:42.756Z,6.63
2022-11-12T06:43:03.873Z,7.18
2022-11-12T06:44:24.493Z,6.80
2022-11-12T06:45:45.069Z,7.85
2022-11-12T06:47:08.465Z,8.18
2022-11-12T06:48:30.300Z,7.53
2022-11-12T06:49:51.137Z,7.95
2022-11-12T06:51:21.101Z,12.75
2022-11-12T06:52:42.007Z,9.50
2022-11-12T06:54:02.529Z,6.20
2022-11-12T06:55:23.275Z,8.48
2022-11-12T06:56:43.839Z,7.25
2022-11-12T06:58:04.389Z,9.88
2022-11-12T06:59:25.601Z,7.72
2022-11-12T07:00:46.779Z,7.20
2022-11-12T07:02:07.800Z,7.63
2022-11-12T07:04:52.752Z,6.85
2022-11-12T07:06:20.594Z,7.13
2022-11-12T07:07:41.555Z,8.25
2022-11-12T07:09:02.948Z,9.18
2022-11-12T07:10:24.116Z,8.70
2022-11-12T07:11:44.812Z,8.82
2022-11-12T07:13:06.250Z,9.40
2022-11-12T07:14:27.141Z,9.30
2022-11-12T07:15:51.312Z,11.00
2022-11-12T07:17:12.433Z,10.55
2022-11-12T07:18:34.143Z,14.25
2022-11-12T07:19:58.206Z,9.95
2022-11-12T07:21:24.798Z,8.65
2022-11-12T07:24:08.126Z,10.07
2022-11-12T07:25:28.853Z,7.95
2022-11-12T07:26:50.108Z,10.93
2022-11-12T07:28:10.832Z,10.00
2022-11-12T07:31:11.597Z,11.48
2022-11-12T07:32:32.566Z,11.98
2022-11-12T07:33:53.401Z,12.38
2022-11-12T07:36:34.844Z,10.07
2022-11-12T07:37:59.372Z,10.25
2022-11-12T07:39:20.680Z,9.88
2022-11-12T07:40:41.270Z,11.20
2022-11-12T07:42:01.570Z,11.93
2022-11-12T07:44:43.184Z,9.40
2022-11-12T07:46:13.760Z,12.63
2022-11-12T07:47:34.614Z,15.95
2022-11-12T07:48:56.299Z,10.52
2022-11-12T07:50:17.553Z,16.92
2022-11-12T07:51:37.949Z,15.00
2022-11-12T07:52:59.622Z,12.55
2022-11-12T07:54:20.260Z,15.02
2022-11-12T07:55:41.574Z,14.05
2022-11-12T07:57:02.297Z,11.43
2022-11-12T07:58:23.746Z,11.82
2022-11-12T07:59:46.281Z,17.25
2022-11-12T08:01:12.113Z,7.70
2022-11-12T08:02:33.100Z,9.15
2022-11-12T08:03:53.670Z,7.82
2022-11-12T08:05:18.864Z,8.68
2022-11-12T08:06:42.789Z,12.70
2022-11-12T08:08:06.230Z,8.98
2022-11-12T08:09:26.987Z,11.65
2022-11-12T08:10:47.494Z,9.18
2022-11-12T08:12:08.723Z,8.93
2022-11-12T08:14:50.187Z,7.97
2022-11-12T08:16:10.979Z,10.52
2022-11-12T08:17:32.153Z,6.15
2022-11-12T08:18:52.708Z,11.43
2022-11-12T08:20:13.487Z,6.50
2022-11-12T08:23:02.140Z,7.03
2022-11-12T08:24:23.335Z,7.47
2022-11-12T08:25:43.832Z,8.65
2022-11-12T08:27:04.523Z,8.32
2022-11-12T08:28:25.494Z,6.85
2022-11-12T08:29:47.007Z,7.63
2022-11-12T08:32:33.174Z,6.78
2022-11-12T08:33:54.311Z,8.93
2022-11-12T08:35:15.273Z,5.90
2022-11-12T08:36:38.136Z,8.68
2022-11-12T08:38:03.155Z,8.05
2022-11-12T08:39:24.100Z,8.40
2022-11-12T08:40:45.272Z,8.50
2022-11-12T08:42:06.205Z,8.25
2022-11-12T08:43:27.149Z,5.70
2022-11-12T08:44:47.882Z,6.40
2022-11-12T08:46:09.655Z,6.18
2022-11-12T08:47:30.458Z,9.52
2022-11-12T08:48:51.023Z,8.05
2022-11-12T08:50:12.748Z,7.63
2022-11-12T08:51:36.501Z,8.52
2022-11-12T08:53:04.567Z,7.05
2022-11-12T08:54:25.064Z,7.57
2022-11-12T08:55:46.290Z,6.38
2022-11-12T08:57:07.196Z,8.63
2022-11-12T08:58:28.563Z,7.97
2022-11-12T08:59:50.610Z,7.47
2022-11-12T09:01:11.403Z,10.68
2022-11-12T09:02:32.893Z,10.65
2022-11-12T09:03:53.517Z,6.20
2022-11-12T09:05:21.481Z,8.00
2022-11-12T09:06:42.579Z,8.02
2022-11-12T09:08:08.937Z,6.22
2022-11-12T09:09:29.895Z,7.78
2022-11-12T09:10:52.006Z,5.25
2022-11-12T09:12:19.682Z,5.60
2022-11-12T09:13:43.816Z,6.68
2022-11-12T09:16:47.156Z,5.38
2022-11-12T09:18:13.478Z,8.35
2022-11-12T09:19:38.645Z,6.75
2022-11-12T09:21:08.883Z,9.68
2022-11-12T09:22:29.473Z,9.23
2022-11-12T09:23:51.063Z,9.85
2022-11-12T09:25:12.034Z,9.77
2022-11-12T09:26:32.884Z,8.50
2022-11-12T09:27:54.160Z,7.68
2022-11-12T09:29:15.303Z,7.40
2022-11-12T09:30:37.668Z,8.10
2022-11-12T09:31:59.613Z,9.50
2022-11-12T09:33:26.156Z,11.13
2022-11-12T09:34:46.916Z,9.18
2022-11-12T09:36:08.176Z,5.97
2022-11-12T09:37:28.880Z,8.50
2022-11-12T09:38:49.539Z,7.20
2022-11-12T09:41:42.112Z,11.05
2022-11-12T09:43:15.292Z,9.73
2022-11-12T09:44:40.473Z,5.43
2022-11-12T09:46:27.622Z,6.05
2022-11-12T09:47:57.854Z,5.93
2022-11-12T09:49:23.879Z,7.10
2022-11-12T09:51:03.025Z,8.70
2022-11-12T09:52:27.004Z,6.03
2022-11-12T09:53:59.326Z,7.10
2022-11-12T09:55:31.371Z,6.50
2022-11-12T09:56:53.049Z,5.88
2022-11-12T09:58:16.264Z,5.20
2022-11-12T09:59:39.458Z,9.38
2022-11-12T10:01:15.259Z,6.60
2022-11-12T10:02:42.998Z,10.35
2022-11-12T10:04:36.384Z,6.70
2022-11-12T10:06:02.536Z,7.78
2022-11-12T10:07:54.654Z,7.72
2022-11-12T10:09:23.032Z,8.10
2022-11-12T10:12:03.817Z,7.00
2022-11-12T10:13:54.292Z,8.98
2022-11-12T10:15:33.959Z,6.90
2022-11-12T10:17:02.960Z,6.68
2022-11-12T10:18:30.251Z,5.25
2022-11-12T10:20:19.056Z,11.18
2022-11-12T10:21:45.819Z,10.70
2022-11-12T10:23:28.461Z,10.85
2022-11-12T10:24:50.081Z,10.32
2022-11-12T10:26:14.412Z,10.98
2022-11-12T10:27:40.118Z,8.25
2022-11-12T10:29:12.928Z,7.05
2022-11-12T10:30:35.569Z,11.50
2022-11-12T10:31:56.319Z,12.85
2022-11-12T10:33:17.561Z,10.35
2022-11-12T10:34:38.047Z,9.98
2022-11-12T10:36:21.146Z,6.93
2022-11-12T10:37:59.950Z,7.13
2022-11-12T10:39:34.350Z,10.30
2022-11-12T10:40:54.955Z,11.40
2022-11-12T10:43:54.010Z,8.20
2022-11-12T10:45:21.230Z,8.60
2022-11-12T10:46:42.080Z,8.18
2022-11-12T10:48:03.384Z,8.38
2022-11-12T10:49:25.055Z,6.97
2022-11-12T10:50:46.266Z,20.20
2022-11-12T10:52:21.455Z,5.15
2022-11-12T10:53:42.327Z,10.25
2022-11-12T10:55:24.618Z,7.53
2022-11-12T10:56:45.242Z,10.43
2022-11-12T10:58:11.641Z,7.38
2022-11-12T10:59:33.695Z,9.82
2022-11-12T11:01:07.504Z,9.13
2022-11-12T11:02:28.145Z,7.75
2022-11-12T11:03:56.842Z,6.18
2022-11-12T11:05:49.249Z,8.23
2022-11-12T11:07:25.020Z,7.75
2022-11-12T11:08:49.028Z,7.35
2022-11-12T11:10:29.464Z,9.25
2022-11-12T11:11:54.218Z,12.82
2022-11-12T11:13:26.354Z,9.75
2022-11-12T11:14:47.637Z,11.30
2022-11-12T11:16:13.661Z,9.55
2022-11-12T11:17:35.231Z,10.52
2022-11-12T11:19:02.678Z,9.50
2022-11-12T11:20:36.069Z,17.27
2022-11-12T11:22:06.766Z,24.95
2022-11-12T11:25:15.947Z,10.40
2022-11-12T11:26:51.177Z,11.07
2022-11-12T11:28:12.491Z,8.55
2022-11-12T11:29:53.955Z,8.35
2022-11-12T11:31:37.526Z,11.07
2022-11-12T11:33:05.818Z,8.52
2022-11-12T11:34:56.124Z,10.57
2022-11-12T11:36:28.977Z,9.23
2022-11-12T11:38:27.820Z,12.07
2022-11-12T11:40:19.414Z,13.45
2022-11-12T11:42:22.477Z,11.65
2022-11-12T11:44:14.283Z,11.35
2022-11-12T11:45:56.723Z,8.98
2022-11-12T11:47:59.895Z,9.30
2022-11-12T11:49:43.333Z,10.20
2022-11-12T11:51:48.916Z,11.45
2022-11-12T11:53:09.698Z,10.25
2022-11-12T11:54:59.531Z,10.88
2022-11-12T11:56:28.675Z,9.52
2022-11-12T11:58:12.141Z,8.90
2022-11-12T11:59:57.011Z,10.45
2022-11-12T12:01:56.604Z,7.32
2022-11-12T12:03:33.004Z,8.35
2022-11-12T12:05:12.069Z,8.38
2022-11-12T12:06:57.615Z,10.27
2022-11-12T12:08:27.259Z,11.38
2022-11-12T12:09:48.119Z,10.52
2022-11-12T12:11:30.357Z,8.50
2022-11-12T12:13:12.641Z,9.65
2022-11-12T12:14:53.578Z,10.63
2022-11-12T12:16:29.535Z,8.60
2022-11-12T12:18:01.744Z,9.50
2022-11-12T12:19:50.968Z,11.98
2022-11-12T12:21:18.646Z,11.27
2022-11-12T12:22:45.831Z,10.75
2022-11-12T12:24:42.550Z,9.43
2022-11-12T12:26:11.532Z,9.63
2022-11-12T12:27:36.575Z,8.00
2022-11-12T12:29:19.093Z,8.63
2022-11-12T12:30:52.222Z,13.85
2022-11-12T12:32:18.351Z,7.90
2022-11-12T12:34:04.693Z,9.95
2022-11-12T12:35:35.397Z,11.27
2022-11-12T12:37:04.139Z,13.80
2022-11-12T12:38:33.306Z,7.60
2022-11-12T12:40:04.725Z,10.93
2022-11-12T12:41:31.723Z,13.13
2022-11-12T12:43:10.919Z,8.18
2022-11-12T12:45:01.319Z,10.60
2022-11-12T12:46:26.089Z,9.38
2022-11-12T12:47:48.604Z,11.32
2022-11-12T12:49:17.225Z,10.10
2022-11-12T12:50:41.436Z,12.63
2022-11-12T12:52:02.612Z,6.75
2022-11-12T12:54:52.897Z,7.78
2022-11-12T12:56:13.492Z,11.02
2022-11-12T12:57:40.886Z,9.30
2022-11-12T12:59:04.481Z,11.90
2022-11-12T13:00:41.208Z,9.25
2022-11-12T13:02:03.797Z,11.73
2022-11-12T13:03:46.241Z,9.75
2022-11-12T13:05:22.123Z,8.98
2022-11-12T13:06:45.405Z,12.80
2022-11-12T13:08:12.328Z,10.07
2022-11-12T13:09:33.296Z,10.07
2022-11-12T13:10:54.161Z,8.60
2022-11-12T13:13:38.996Z,9.02
2022-11-12T13:15:18.018Z,9.45
2022-11-12T13:16:53.756Z,9.32
2022-11-12T13:18:42.311Z,11.93
2022-11-12T13:20:02.731Z,10.73
2022-11-12T13:21:24.054Z,8.50
2022-11-12T13:22:44.468Z,10.63
2022-11-12T13:24:12.518Z,7.00
2022-11-12T13:25:33.319Z,15.88
2022-11-12T13:27:01.193Z,15.50
2022-11-12T13:28:22.066Z,9.30
2022-11-12T13:29:45.118Z,7.85
2022-11-12T13:31:26.266Z,10.60
2022-11-12T13:32:46.964Z,11.85
2022-11-12T13:35:42.661Z,9.85
2022-11-12T13:37:05.742Z,9.95
2022-11-12T13:38:27.763Z,9.40
2022-11-12T13:39:48.705Z,7.68
2022-11-12T13:41:17.665Z,8.05
2022-11-12T13:42:50.756Z,8.90
2022-11-12T13:44:17.022Z,10.00
2022-11-12T13:46:03.674Z,9.85
2022-11-12T13:47:28.886Z,9.82
2022-11-12T13:49:02.163Z,6.38
2022-11-12T13:50:24.964Z,9.43
2022-11-12T13:51:48.073Z,7.80
2022-11-12T13:53:11.057Z,11.00
2022-11-12T13:54:35.257Z,11.95
2022-11-12T13:55:56.889Z,8.82
2022-11-12T13:57:20.450Z,10.00
2022-11-12T13:58:43.749Z,8.52
2022-11-12T14:00:20.680Z,13.82
2022-11-12T14:01:42.577Z,9.70
2022-11-12T14:03:06.732Z,9.23
2022-11-12T14:04:27.706Z,12.88
2022-11-12T14:05:50.194Z,9.45
2022-11-12T14:07:22.698Z,14.02
2022-11-12T14:08:43.506Z,9.32
2022-11-12T14:10:32.610Z,10.93
2022-11-12T14:12:15.609Z,11.15
2022-11-12T14:13:57.626Z,13.82
2022-11-12T14:16:01.623Z,9.75
2022-11-12T14:17:37.313Z,9.57
2022-11-12T14:19:35.304Z,10.70
2022-11-12T14:20:56.809Z,9.25
2022-11-12T14:22:21.815Z,9.57
2022-11-12T14:23:47.545Z,11.90
2022-11-12T14:25:19.904Z,12.43
2022-11-12T14:26:42.977Z,13.15
2022-11-12T14:28:05.459Z,11.00
2022-11-12T14:29:29.904Z,11.95
2022-11-12T14:30:54.719Z,9.77
2022-11-12T14:32:15.840Z,13.20
2022-11-12T14:33:37.028Z,13.63
2022-11-12T14:34:57.658Z,12.50
2022-11-12T14:36:19.582Z,12.23
2022-11-12T14:37:43.763Z,13.00
2022-11-12T14:39:06.473Z,13.15
2022-11-12T14:40:29.841Z,9.27
2022-11-12T14:41:51.655Z,11.68
2022-11-12T14:43:37.943Z,13.70
2022-11-12T14:44:58.912Z,12.77
2022-11-12T14:46:50.031Z,15.90
2022-11-12T14:48:10.797Z,12.63
2022-11-12T14:49:44.707Z,13.95
2022-11-12T14:51:10.779Z,17.05
2022-11-12T14:52:37.644Z,15.85
2022-11-12T14:54:15.804Z,12.95
2022-11-12T14:55:41.164Z,16.02
2022-11-12T14:57:04.358Z,16.15
2022-11-12T14:58:27.249Z,17.45
2022-11-12T14:59:47.794Z,20.38
2022-11-12T15:02:03.839Z,12.85
2022-11-12T15:03:05.515Z,15.25
2022-11-12T15:04:26.299Z,14.93
2022-11-12T15:05:58.246Z,13.15
2022-11-12T15:07:33.509Z,14.10
2022-11-12T15:08:59.685Z,16.20
2022-11-12T15:10:39.973Z,15.45
2022-11-12T15:12:00.756Z,16.15
2022-11-12T15:13:26.803Z,12.57
2022-11-12T15:14:47.897Z,15.10
2022-11-12T15:17:35.611Z,14.07
2022-11-12T15:19:24.408Z,16.20
2022-11-12T15:20:45.585Z,12.80
2022-11-12T15:22:06.817Z,16.63
2022-11-12T15:24:49.695Z,16.25
2022-11-12T15:26:15.369Z,16.98
2022-11-12T15:27:41.829Z,14.45
2022-11-12T15:29:11.417Z,20.00
2022-11-12T15:30:33.210Z,16.95
2022-11-12T15:32:01.225Z,17.25
2022-11-12T15:33:22.645Z,21.15
2022-11-12T15:34:46.295Z,16.63
2022-11-12T15:36:19.220Z,18.13
2022-11-12T15:37:43.096Z,19.85
2022-11-12T15:39:11.025Z,16.67
2022-11-12T15:40:33.209Z,14.55
2022-11-12T15:41:58.964Z,20.05
2022-11-12T15:43:24.485Z,15.60
2022-11-12T15:44:45.916Z,14.88
2022-11-12T15:46:15.040Z,20.35
2022-11-12T15:47:35.791Z,18.80
2022-11-12T15:48:56.398Z,20.55
2022-11-12T15:50:23.550Z,18.27
2022-11-12T15:51:44.196Z,21.38
2022-11-12T15:53:05.221Z,26.38
2022-11-12T15:55:47.149Z,19.58
2022-11-12T15:57:14.705Z,24.40
2022-11-12T15:58:37.396Z,21.92
2022-11-12T16:00:08.424Z,22.02
2022-11-12T16:01:29.810Z,26.90
2022-11-12T16:03:09.090Z,28.40
2022-11-12T16:04:30.037Z,25.27
2022-11-12T16:05:50.569Z,24.92
2022-11-12T16:07:11.508Z,26.95
2022-11-12T16:08:32.558Z,23.27
2022-11-12T16:09:54.242Z,28.20
2022-11-12T16:11:35.150Z,25.92
2022-11-12T16:12:59.505Z,26.80
2022-11-12T16:14:24.665Z,23.23
2022-11-12T16:15:45.941Z,24.25
2022-11-12T16:18:31.393Z,24.33
2022-11-12T16:19:51.899Z,25.35
2022-11-12T16:21:16.650Z,23.80
2022-11-12T16:22:40.000Z,20.85
2022-11-12T16:24:01.069Z,32.90
2022-11-12T16:25:22.406Z,29.02
2022-11-12T16:26:43.347Z,31.45
2022-11-12T16:28:05.218Z,31.02
2022-11-12T16:29:26.241Z,30.33
2022-11-12T16:32:13.271Z,29.30
2022-11-12T16:33:34.031Z,25.70
2022-11-12T16:36:22.469Z,32.30
2022-11-12T16:37:45.447Z,34.20
2022-11-12T16:39:06.589Z,36.15
2022-11-12T16:40:29.878Z,34.03
2022-11-12T16:41:51.015Z,34.17
2022-11-12T16:43:11.722Z,37.80
2022-11-12T16:44:32.374Z,32.00
2022-11-12T16:45:53.116Z,32.53
2022-11-12T16:47:13.938Z,37.15
2022-11-12T16:49:55.584Z,36.47
2022-11-12T16:51:18.650Z,35.80
2022-11-12T16:52:39.975Z,27.67
2022-11-12T16:54:02.490Z,30.33
2022-11-12T16:55:23.776Z,33.67
2022-11-12T16:56:45.241Z,36.78
2022-11-12T16:59:27.283Z,28.50
2022-11-12T17:00:51.911Z,32.15
2022-11-12T17:02:15.519Z,36.40
2022-11-12T17:03:37.099Z,34.38
2022-11-12T17:04:57.725Z,33.70
2022-11-12T17:06:20.010Z,37.22
2022-11-12T17:07:40.541Z,35.67
2022-11-12T17:09:01.901Z,39.40
2022-11-12T17:10:25.835Z,33.47
2022-11-12T17:11:46.563Z,32.75
2022-11-12T17:13:07.997Z,33.95
2022-11-12T17:14:29.115Z,36.22
2022-11-12T17:15:56.971Z,34.17
2022-11-12T17:17:17.790Z,35.70
2022-11-12T17:18:38.668Z,44.42
2022-11-12T17:19:59.628Z,38.08
2022-11-12T17:21:20.364Z,41.85
2022-11-12T17:22:40.992Z,33.05
2022-11-12T17:24:01.543Z,34.75
2022-11-12T17:25:22.155Z,35.90
2022-11-12T17:26:43.120Z,37.13
2022-11-12T17:29:24.489Z,32.90
2022-11-12T17:30:45.151Z,31.88
2022-11-12T17:32:06.234Z,38.03
2022-11-12T17:33:27.560Z,41.20
2022-11-12T17:34:48.759Z,34.15
2022-11-12T17:36:12.761Z,37.70
2022-11-12T17:37:33.584Z,35.88
2022-11-12T17:38:55.839Z,35.97
2022-11-12T17:40:16.642Z,37.85
2022-11-12T17:41:37.897Z,35.28
2022-11-12T17:42:58.612Z,37.10
2022-11-12T17:44:19.850Z,37.75
2022-11-12T17:45:49.436Z,45.08
2022-11-12T17:47:09.870Z,39.55
2022-11-12T17:48:31.839Z,39.58
2022-11-12T17:49:52.711Z,38.13
2022-11-12T17:51:16.618Z,41.63
2022-11-12T17:52:37.301Z,39.38
2022-11-12T17:53:57.861Z,39.92
2022-11-12T17:55:18.326Z,37.47
2022-11-12T17:56:39.266Z,39.53
2022-11-12T17:57:59.829Z,36.45
2022-11-12T17:59:20.572Z,40.70
2022-11-12T18:00:41.372Z,38.03
2022-11-12T18:02:02.259Z,47.22
2022-11-12T18:03:22.726Z,47.88
2022-11-12T18:06:04.341Z,39.28
2022-11-12T18:07:25.018Z,32.15
2022-11-12T18:08:45.735Z,39.58
2022-11-12T18:11:30.048Z,41.42
2022-11-12T18:12:52.108Z,40.00
2022-11-12T18:14:12.868Z,57.47
2022-11-12T18:15:33.397Z,43.88
2022-11-12T18:16:54.018Z,51.63
2022-11-12T18:18:14.752Z,41.42
2022-11-12T18:19:36.545Z,49.92
2022-11-12T18:20:58.853Z,35.72
2022-11-12T18:22:20.646Z,41.47
2022-11-12T18:23:44.912Z,40.70
2022-11-12T18:25:06.471Z,38.45
2022-11-12T18:26:27.012Z,37.50
2022-11-12T18:27:47.795Z,36.15
2022-11-12T18:29:08.358Z,36.63
2022-11-12T18:30:29.031Z,37.92
2022-11-12T18:31:49.606Z,40.67
2022-11-12T18:33:10.644Z,36.53
2022-11-12T18:36:02.266Z,37.13
2022-11-12T18:37:23.307Z,40.15
2022-11-12T18:38:44.065Z,40.22
2022-11-12T18:41:26.908Z,38.72
2022-11-12T18:42:47.812Z,42.25
2022-11-12T18:44:09.719Z,44.42
2022-11-12T18:45:30.128Z,42.17
2022-11-12T18:48:12.394Z,47.10
2022-11-12T18:49:33.879Z,41.17
2022-11-12T18:52:18.953Z,46.90
2022-11-12T18:53:40.407Z,59.67
2022-11-12T18:55:01.611Z,41.22
2022-11-12T18:56:22.168Z,39.42
2022-11-12T18:57:42.728Z,44.20
2022-11-12T18:59:03.113Z,38.78
2022-11-12T19:00:24.281Z,47.63
2022-11-12T19:01:44.882Z,44.65
2022-11-12T19:03:06.042Z,43.42
2022-11-12T19:04:26.741Z,44.22
2022-11-12T19:05:47.662Z,41.97
2022-11-12T19:07:08.378Z,44.97
2022-11-12T19:09:50.022Z,49.60
2022-11-12T19:11:13.230Z,43.15
2022-11-12T19:12:33.854Z,52.03
2022-11-12T19:13:55.092Z,47.63
2022-11-12T19:15:15.715Z,47.50
2022-11-12T19:16:38.275Z,44.13
2022-11-12T19:17:59.165Z,44.92
2022-11-12T19:19:20.061Z,45.83
2022-11-12T19:20:40.680Z,50.03
2022-11-12T19:22:01.155Z,44.47
2022-11-12T19:23:21.840Z,47.03
2022-11-12T19:24:43.040Z,50.03
2022-11-12T19:27:25.115Z,42.88
2022-11-12T19:28:46.014Z,42.92
2022-11-12T19:30:07.504Z,44.50
2022-11-12T19:31:28.239Z,40.92
2022-11-12T19:32:49.309Z,51.97
2022-11-12T19:34:09.816Z,43.72
2022-11-12T19:35:30.191Z,40.83
2022-11-12T19:38:32.797Z,47.45
2022-11-12T19:39:53.386Z,47.33
2022-11-12T19:41:19.494Z,47.03
2022-11-12T19:42:41.203Z,48.95
2022-11-12T19:44:01.761Z,48.03
2022-11-12T19:45:22.321Z,46.80
2022-11-12T19:46:42.796Z,50.90
2022-11-12T19:48:04.454Z,53.45
2022-11-12T19:49:25.527Z,44.72
2022-11-12T19:50:46.181Z,47.92
2022-11-12T19:52:06.763Z,51.60
2022-11-12T19:53:44.982Z,46.90
2022-11-12T19:55:06.298Z,42.42
2022-11-12T19:57:48.773Z,50.60
2022-11-12T19:59:09.282Z,53.92
2022-11-12T20:00:29.781Z,58.72
2022-11-12T20:01:50.688Z,54.10
2022-11-12T20:03:11.417Z,56.03